createdAt,value
2022-12-28T00:01:32.258Z,2.50
2022-12-28T00:04:53.929Z,2.50
2022-12-28T00:08:16.844Z,2.50
2022-12-28T00:11:38.479Z,2.50
2022-12-28T00:15:00.057Z,2.50
2022-12-28T00:18:21.637Z,2.40
2022-12-28T00:21:43.633Z,2.30
2022-12-28T00:25:07.441Z,2.30
2022-12-28T00:28:28.978Z,2.20
2022-12-28T00:31:50.647Z,2.10
2022-12-28T00:35:12.224Z,2.10
2022-12-28T00:38:34.730Z,2.10
2022-12-28T00:41:57.646Z,2.10
2022-12-28T00:45:19.192Z,2.00
2022-12-28T00:48:40.750Z,2.00
2022-12-28T00:52:02.339Z,1.90
2022-12-28T00:55:23.913Z,1.40
2022-12-28T00:58:47.013Z,1.20
2022-12-28T01:02:08.701Z,1.00
2022-12-28T01:05:30.361Z,0.90
2022-12-28T01:08:51.959Z,0.90
2022-12-28T01:12:13.574Z,0.90
2022-12-28T01:15:37.564Z,1.00
2022-12-28T01:19:00.050Z,1.00
2022-12-28T01:22:21.708Z,1.00
2022-12-28T01:25:43.265Z,1.20
2022-12-28T01:29:04.864Z,1.40
2022-12-28T01:32:27.764Z,1.50
2022-12-28T01:35:49.327Z,1.60
2022-12-28T01:39:10.930Z,1.70
2022-12-28T01:42:32.523Z,1.80
2022-12-28T01:45:54.093Z,1.80
2022-12-28T01:49:18.504Z,1.80
2022-12-28T01:52:42.143Z,1.80
2022-12-28T01:56:04.228Z,1.90
2022-12-28T01:59:27.735Z,2.00
2022-12-28T02:02:52.415Z,2.10
2022-12-28T02:06:15.337Z,2.10
2022-12-28T02:09:38.513Z,2.20
2022-12-28T02:13:00.245Z,2.20
2022-12-28T02:16:21.907Z,2.20
2022-12-28T02:19:44.978Z,2.20
2022-12-28T02:23:27.414Z,2.30
2022-12-28T02:26:52.239Z,2.30
2022-12-28T02:30:15.294Z,2.30
2022-12-28T02:33:39.942Z,2.30
2022-12-28T02:37:04.525Z,2.40
2022-12-28T02:40:27.479Z,2.50
2022-12-28T02:43:49.110Z,2.60
2022-12-28T02:47:13.194Z,2.70
2022-12-28T02:50:38.854Z,2.80
2022-12-28T02:54:10.765Z,2.90
2022-12-28T02:57:40.529Z,3.00
2022-12-28T03:01:10.053Z,3.00
2022-12-28T03:04:36.587Z,3.10
2022-12-28T03:08:01.495Z,3.10
2022-12-28T03:11:28.006Z,3.20
2022-12-28T03:14:51.724Z,3.20
2022-12-28T03:18:14.689Z,3.30
2022-12-28T03:21:37.671Z,3.30
2022-12-28T03:25:00.057Z,3.50
2022-12-28T03:28:23.762Z,3.50
2022-12-28T03:31:45.572Z,3.50
2022-12-28T03:35:07.393Z,3.50
2022-12-28T03:38:34.719Z,3.50
2022-12-28T03:41:58.705Z,3.50
2022-12-28T03:45:44.264Z,3.40
2022-12-28T03:49:03.730Z,3.50
2022-12-28T03:52:25.625Z,3.60
2022-12-28T03:55:48.696Z,3.60
2022-12-28T03:59:10.255Z,3.70
2022-12-28T04:02:31.891Z,3.60
2022-12-28T04:05:54.795Z,3.10
2022-12-28T04:09:16.356Z,2.70
2022-12-28T04:12:39.272Z,2.40
2022-12-28T04:16:01.915Z,2.20
2022-12-28T04:19:23.500Z,2.10
2022-12-28T04:22:45.047Z,2.00
2022-12-28T04:26:07.449Z,2.00
2022-12-28T04:29:30.360Z,2.00
2022-12-28T04:32:51.897Z,2.10
2022-12-28T04:36:14.412Z,2.20
2022-12-28T04:39:56.301Z,2.30
2022-12-28T04:43:17.470Z,2.40
2022-12-28T04:46:40.492Z,2.40
2022-12-28T04:50:02.128Z,2.50
2022-12-28T04:53:24.155Z,2.60
2022-12-28T04:56:45.709Z,2.70
2022-12-28T05:00:07.879Z,2.60
2022-12-28T05:03:30.792Z,2.70
2022-12-28T05:06:54.271Z,2.80
2022-12-28T05:10:15.838Z,2.90
2022-12-28T05:13:37.381Z,3.10
2022-12-28T05:16:59.032Z,3.40
2022-12-28T05:20:22.110Z,3.50
2022-12-28T05:23:43.795Z,3.60
2022-12-28T05:27:05.327Z,3.70
2022-12-28T05:30:26.882Z,3.80
2022-12-28T05:33:48.705Z,3.70
2022-12-28T05:37:15.644Z,3.40
2022-12-28T05:40:40.108Z,3.20
2022-12-28T05:44:01.854Z,2.90
2022-12-28T05:47:23.383Z,2.70
2022-12-28T05:50:44.944Z,2.60
2022-12-28T05:54:07.834Z,2.50
2022-12-28T05:57:29.377Z,2.50
2022-12-28T06:00:50.922Z,2.50
2022-12-28T06:04:14.332Z,2.50
2022-12-28T06:07:35.873Z,2.50
2022-12-28T06:11:01.016Z,2.50
2022-12-28T06:14:22.775Z,2.50
2022-12-28T06:17:44.331Z,2.50
2022-12-28T06:21:07.384Z,2.60
2022-12-28T06:24:28.971Z,2.70
2022-12-28T06:27:51.848Z,2.80
2022-12-28T06:31:14.421Z,2.90
2022-12-28T06:34:35.994Z,3.00
2022-12-28T06:37:57.723Z,3.20
2022-12-28T06:41:19.958Z,3.40
2022-12-28T06:44:44.852Z,3.60
2022-12-28T06:48:06.539Z,3.70
2022-12-28T06:51:28.581Z,3.80
2022-12-28T06:54:50.142Z,3.80
2022-12-28T06:58:11.761Z,3.80
2022-12-28T07:01:35.969Z,3.70
2022-12-28T07:04:57.677Z,3.60
2022-12-28T07:08:19.258Z,3.60
2022-12-28T07:11:40.901Z,3.50
2022-12-28T07:15:02.481Z,3.50
2022-12-28T07:18:25.380Z,3.50
2022-12-28T07:21:49.340Z,3.40
2022-12-28T07:25:10.868Z,3.40
2022-12-28T07:28:32.480Z,3.50
2022-12-28T07:31:54.030Z,3.40
2022-12-28T07:35:17.119Z,3.40
2022-12-28T07:38:39.487Z,3.50
2022-12-28T07:42:01.113Z,3.50
2022-12-28T07:45:22.682Z,3.60
2022-12-28T07:48:44.816Z,3.70
2022-12-28T07:52:07.722Z,3.80
2022-12-28T07:55:29.315Z,3.90
2022-12-28T08:02:11.919Z,4.00
2022-12-28T08:05:33.524Z,4.00
2022-12-28T08:08:58.113Z,4.00
2022-12-28T08:12:19.845Z,4.10
2022-12-28T08:15:41.433Z,4.10
2022-12-28T08:19:03.282Z,4.10
2022-12-28T08:22:24.822Z,4.30
2022-12-28T08:25:47.712Z,4.30
2022-12-28T08:29:10.547Z,4.30
2022-12-28T08:32:32.229Z,4.40
2022-12-28T08:35:56.288Z,4.50
2022-12-28T08:39:17.834Z,4.50
2022-12-28T08:42:40.768Z,4.60
2022-12-28T08:46:03.923Z,4.80
2022-12-28T08:49:25.623Z,5.00
2022-12-28T08:52:47.347Z,5.10
2022-12-28T08:56:10.120Z,5.30
2022-12-28T08:59:33.076Z,5.50
2022-12-28T09:02:54.727Z,5.60
2022-12-28T09:06:17.312Z,5.80
2022-12-28T09:09:38.935Z,6.00
2022-12-28T09:13:00.533Z,6.30
2022-12-28T09:16:25.819Z,6.50
2022-12-28T09:19:47.429Z,6.80
2022-12-28T09:23:08.986Z,7.00
2022-12-28T09:26:31.354Z,7.00
2022-12-28T09:29:53.816Z,7.10
2022-12-28T09:33:16.714Z,7.20
2022-12-28T09:36:39.065Z,7.40
2022-12-28T09:40:01.821Z,7.40
2022-12-28T09:43:23.963Z,7.50
2022-12-28T09:46:49.063Z,7.40
2022-12-28T09:50:28.828Z,7.40
2022-12-28T09:53:51.749Z,7.40
2022-12-28T09:57:13.960Z,7.40
2022-12-28T10:00:37.988Z,7.40
2022-12-28T10:04:00.532Z,7.50
2022-12-28T10:07:22.399Z,7.50
2022-12-28T10:10:48.873Z,7.40
2022-12-28T10:14:16.933Z,7.50
2022-12-28T10:17:38.653Z,7.70
2022-12-28T10:21:00.308Z,7.90
2022-12-28T10:24:32.129Z,7.80
2022-12-28T10:27:55.900Z,7.90
2022-12-28T10:31:29.976Z,7.90
2022-12-28T10:34:56.193Z,8.10
2022-12-28T10:38:22.622Z,8.20
2022-12-28T10:41:44.248Z,8.30
2022-12-28T10:45:16.266Z,8.40
2022-12-28T10:48:39.172Z,8.60
2022-12-28T10:52:02.610Z,8.50
2022-12-28T10:55:28.941Z,8.50
2022-12-28T10:58:51.205Z,8.40
2022-12-28T11:02:23.804Z,8.40
2022-12-28T11:05:45.581Z,8.40
2022-12-28T11:09:14.783Z,8.40
2022-12-28T11:12:41.346Z,8.40
2022-12-28T11:16:02.926Z,8.30
2022-12-28T11:19:25.859Z,8.10
2022-12-28T11:22:47.633Z,8.00
2022-12-28T11:26:11.242Z,7.90
2022-12-28T11:29:32.807Z,7.90
2022-12-28T11:32:55.455Z,7.90
2022-12-28T11:36:19.450Z,7.90
2022-12-28T11:39:45.212Z,8.10
2022-12-28T11:43:27.231Z,8.30
2022-12-28T11:47:06.435Z,8.40
2022-12-28T11:50:41.828Z,8.60
2022-12-28T11:54:05.455Z,8.60
2022-12-28T11:57:33.264Z,8.70
2022-12-28T12:00:54.980Z,8.80
2022-12-28T12:04:27.062Z,8.90
2022-12-28T12:07:48.721Z,8.90
2022-12-28T12:11:31.032Z,8.80
2022-12-28T12:14:54.963Z,8.90
2022-12-28T12:18:18.943Z,8.90
2022-12-28T12:21:44.265Z,9.00
2022-12-28T12:25:08.014Z,9.10
2022-12-28T12:28:36.875Z,9.00
2022-12-28T12:32:00.837Z,9.10
2022-12-28T12:35:23.344Z,9.20
2022-12-28T12:38:54.228Z,9.30
2022-12-28T12:42:20.987Z,9.40
2022-12-28T12:45:50.094Z,9.50
2022-12-28T12:49:29.381Z,9.50
2022-12-28T12:52:54.403Z,9.40
2022-12-28T12:56:24.114Z,9.40
2022-12-28T12:59:52.102Z,9.40
2022-12-28T13:03:17.760Z,9.40
2022-12-28T13:06:39.493Z,9.40
2022-12-28T13:10:02.516Z,9.40
2022-12-28T13:13:27.549Z,9.40
2022-12-28T13:16:50.787Z,9.40
2022-12-28T13:20:18.665Z,9.30
2022-12-28T13:23:43.031Z,9.30
2022-12-28T13:27:17.618Z,9.10
2022-12-28T13:30:39.265Z,9.10
2022-12-28T13:34:01.928Z,9.10
2022-12-28T13:37:24.906Z,9.10
2022-12-28T13:40:50.210Z,9.10
2022-12-28T13:44:26.670Z,9.00
2022-12-28T13:47:49.679Z,9.00
2022-12-28T13:51:12.768Z,9.00
2022-12-28T13:54:36.127Z,9.10
2022-12-28T13:58:00.074Z,9.00
2022-12-28T14:01:24.031Z,9.00
2022-12-28T14:04:54.138Z,9.00
2022-12-28T14:08:16.461Z,8.90
2022-12-28T14:11:39.959Z,8.90
2022-12-28T14:15:01.793Z,8.90
2022-12-28T14:18:24.100Z,8.80
2022-12-28T14:21:46.087Z,8.80
2022-12-28T14:25:08.540Z,8.80
2022-12-28T14:28:33.580Z,8.70
2022-12-28T14:31:57.237Z,8.80
2022-12-28T14:35:20.073Z,8.70
2022-12-28T14:38:45.994Z,8.60
2022-12-28T14:42:18.503Z,8.60
2022-12-28T14:46:06.964Z,8.50
2022-12-28T14:49:36.265Z,8.40
2022-12-28T14:53:02.027Z,8.30
2022-12-28T14:56:23.667Z,8.20
2022-12-28T14:59:47.658Z,8.20
2022-12-28T15:03:18.192Z,8.20
2022-12-28T15:06:39.791Z,8.10
2022-12-28T15:10:01.380Z,8.00
2022-12-28T15:13:23.346Z,8.00
2022-12-28T15:16:44.979Z,7.90
2022-12-28T15:20:08.714Z,7.90
2022-12-28T15:23:30.334Z,7.80
2022-12-28T15:26:51.923Z,7.60
2022-12-28T15:30:18.902Z,7.40
2022-12-28T15:33:43.507Z,7.30
2022-12-28T15:37:06.460Z,7.10
2022-12-28T15:40:28.072Z,7.00
2022-12-28T15:43:49.928Z,6.90
2022-12-28T15:47:11.499Z,6.90
2022-12-28T15:50:33.116Z,6.80
2022-12-28T15:53:56.129Z,6.70
2022-12-28T15:57:17.712Z,6.60
2022-12-28T16:00:44.210Z,6.50
2022-12-28T16:04:08.887Z,6.40
2022-12-28T16:07:30.455Z,6.40
2022-12-28T16:10:53.407Z,6.40
2022-12-28T16:14:15.887Z,6.40
2022-12-28T16:17:44.265Z,6.30
2022-12-28T16:21:13.093Z,6.30
2022-12-28T16:24:34.794Z,6.40
2022-12-28T16:27:57.663Z,6.40
2022-12-28T16:31:22.767Z,6.40
2022-12-28T16:34:44.372Z,6.40
2022-12-28T16:38:05.934Z,6.50
2022-12-28T16:41:32.953Z,6.50
2022-12-28T16:44:59.299Z,6.60
2022-12-28T16:48:20.873Z,6.60
2022-12-28T16:51:43.534Z,6.50
2022-12-28T16:55:05.333Z,6.50
2022-12-28T16:58:27.073Z,6.50
2022-12-28T17:01:50.534Z,6.40
2022-12-28T17:05:12.277Z,6.40
2022-12-28T17:08:33.935Z,6.40
2022-12-28T17:11:55.505Z,6.40
2022-12-28T17:15:17.154Z,6.50
2022-12-28T17:18:40.173Z,6.50
2022-12-28T17:22:02.040Z,6.50
2022-12-28T17:25:23.654Z,6.50
2022-12-28T17:28:45.206Z,6.50
2022-12-28T17:32:07.236Z,6.50
2022-12-28T17:35:30.189Z,6.50
2022-12-28T17:38:52.147Z,6.40
2022-12-28T17:42:13.691Z,6.30
2022-12-28T17:45:35.972Z,6.20
2022-12-28T17:48:58.507Z,6.20
2022-12-28T17:52:21.808Z,6.10
2022-12-28T17:55:43.434Z,6.00
2022-12-28T17:59:05.026Z,5.90
2022-12-28T18:02:26.817Z,5.90
2022-12-28T18:05:48.526Z,5.90
2022-12-28T18:09:11.433Z,5.80
2022-12-28T18:12:33.010Z,5.80
2022-12-28T18:15:54.575Z,5.80
2022-12-28T18:19:16.119Z,5.90
2022-12-28T18:22:37.682Z,5.90
2022-12-28T18:26:04.279Z,6.00
2022-12-28T18:29:25.849Z,6.00
2022-12-28T18:32:47.415Z,6.00
2022-12-28T18:36:16.814Z,5.90
2022-12-28T18:39:39.147Z,5.90
2022-12-28T18:43:02.047Z,5.80
2022-12-28T18:46:23.692Z,5.80
2022-12-28T18:49:47.244Z,5.80
2022-12-28T18:53:08.985Z,5.80
2022-12-28T18:56:30.586Z,5.80
2022-12-28T18:59:53.539Z,5.70
2022-12-28T19:03:15.184Z,5.70
2022-12-28T19:06:37.041Z,5.70
2022-12-28T19:09:58.672Z,5.70
2022-12-28T19:13:20.306Z,5.80
2022-12-28T19:16:44.517Z,5.80
2022-12-28T19:20:06.859Z,5.80
2022-12-28T19:23:28.429Z,5.90
2022-12-28T19:26:50.807Z,6.00
2022-12-28T19:30:12.895Z,6.00
2022-12-28T19:33:35.874Z,6.00
2022-12-28T19:36:57.446Z,6.10
2022-12-28T19:40:19.086Z,6.10
2022-12-28T19:43:41.277Z,6.10
2022-12-28T19:47:02.857Z,6.00
2022-12-28T19:50:25.752Z,5.90
2022-12-28T19:53:47.291Z,5.80
2022-12-28T19:57:08.904Z,5.80
2022-12-28T20:00:30.578Z,5.70
2022-12-28T20:03:52.554Z,5.70
2022-12-28T20:07:15.563Z,5.60
2022-12-28T20:10:37.132Z,5.60
2022-12-28T20:13:59.404Z,5.70
2022-12-28T20:17:20.986Z,5.80
2022-12-28T20:21:17.241Z,5.70
2022-12-28T20:24:25.512Z,5.70
2022-12-28T20:27:47.193Z,5.60
2022-12-28T20:31:10.691Z,5.50
2022-12-28T20:34:32.424Z,5.50
2022-12-28T20:37:56.450Z,5.50
2022-12-28T20:41:20.241Z,5.50
2022-12-28T20:44:41.872Z,5.50
2022-12-28T20:48:03.626Z,5.50
2022-12-28T20:51:25.671Z,5.40
2022-12-28T20:54:47.244Z,5.40
2022-12-28T20:58:10.169Z,5.30
2022-12-28T21:01:31.940Z,5.30
2022-12-28T21:04:53.631Z,5.30
2022-12-28T21:08:15.211Z,5.30
2022-12-28T21:11:36.771Z,5.30
2022-12-28T21:14:59.712Z,5.30
2022-12-28T21:18:21.293Z,5.30
2022-12-28T21:21:42.864Z,5.20
2022-12-28T21:25:04.901Z,5.10
2022-12-28T21:28:26.483Z,5.10
2022-12-28T21:31:49.375Z,5.00
2022-12-28T21:35:10.932Z,4.90
2022-12-28T21:38:33.075Z,4.80
2022-12-28T21:41:54.751Z,4.80
2022-12-28T21:45:16.586Z,4.90
2022-12-28T21:48:39.932Z,5.00
2022-12-28T21:52:01.498Z,5.10
2022-12-28T21:55:23.054Z,5.30
2022-12-28T21:58:44.640Z,5.60
2022-12-28T22:02:11.842Z,6.00
2022-12-28T22:05:34.989Z,6.30
2022-12-28T22:08:56.549Z,6.40
2022-12-28T22:12:18.121Z,6.50
2022-12-28T22:15:39.694Z,6.70
2022-12-28T22:19:03.149Z,6.80
2022-12-28T22:22:26.586Z,6.90
2022-12-28T22:25:48.138Z,7.00
2022-12-28T22:29:09.694Z,7.10
2022-12-28T22:32:31.335Z,7.10
2022-12-28T22:35:52.898Z,7.00
2022-12-28T22:39:15.789Z,6.90
2022-12-28T22:42:39.536Z,6.80
2022-12-28T22:46:02.064Z,6.80
2022-12-28T22:49:23.723Z,6.70
2022-12-28T22:52:45.331Z,6.70
2022-12-28T22:56:10.492Z,6.70
2022-12-28T22:59:32.084Z,6.70
2022-12-28T23:02:53.786Z,6.70
2022-12-28T23:06:16.216Z,6.70
2022-12-28T23:09:37.786Z,6.70
2022-12-28T23:13:00.690Z,6.70
2022-12-28T23:16:22.292Z,6.70
2022-12-28T23:19:44.919Z,6.60
2022-12-28T23:23:06.507Z,6.70
2022-12-28T23:26:28.062Z,6.70
2022-12-28T23:29:51.063Z,6.80
2022-12-28T23:33:12.688Z,7.00
2022-12-28T23:36:34.236Z,7.00
2022-12-28T23:39:55.811Z,6.90
2022-12-28T23:43:17.392Z,6.90
2022-12-28T23:46:40.324Z,6.90
2022-12-28T23:50:01.957Z,6.90
2022-12-28T23:53:23.517Z,6.90
2022-12-28T23:56:45.443Z,7.00
